createdAt,value
2023-03-03T00:01:18.962Z,102553.41
2023-03-03T00:03:27.657Z,102556.03
2023-03-03T00:05:33.706Z,102554.25
2023-03-03T00:07:39.540Z,102554.25
2023-03-03T00:09:43.618Z,102551.63
2023-03-03T00:11:51.605Z,102552.50
2023-03-03T00:13:57.728Z,102552.47
2023-03-03T00:16:19.092Z,102556.88
2023-03-03T00:18:28.282Z,102553.44
2023-03-03T00:20:37.771Z,102560.47
2023-03-03T00:22:42.874Z,102549.94
2023-03-03T00:24:47.680Z,102567.47
2023-03-03T00:26:56.136Z,102552.59
2023-03-03T00:29:00.008Z,102560.50
2023-03-03T00:31:14.984Z,102550.84
2023-03-03T00:33:29.522Z,102561.38
2023-03-03T00:35:36.656Z,102556.13
2023-03-03T00:37:42.691Z,102556.13
2023-03-03T00:39:46.553Z,102556.13
2023-03-03T00:41:50.764Z,102554.38
2023-03-03T00:43:56.595Z,102558.75
2023-03-03T00:46:01.091Z,102557.84
2023-03-03T00:48:20.974Z,102562.22
2023-03-03T00:50:44.997Z,102562.22
2023-03-03T00:53:00.269Z,102557.84
2023-03-03T00:55:04.382Z,102561.38
2023-03-03T00:57:09.222Z,102560.53
2023-03-03T00:59:14.468Z,102556.16
2023-03-03T01:01:19.714Z,102557.94
2023-03-03T01:03:28.824Z,102562.34
2023-03-03T01:05:34.423Z,102566.72
2023-03-03T01:07:40.916Z,102561.44
2023-03-03T01:09:45.858Z,102562.31
2023-03-03T01:11:50.174Z,102557.91
2023-03-03T01:13:54.908Z,102559.66
2023-03-03T01:15:59.938Z,102560.56
2023-03-03T01:18:05.587Z,102559.69
2023-03-03T01:20:12.358Z,102569.28
2023-03-03T01:22:17.450Z,102560.53
2023-03-03T01:24:22.727Z,102563.16
2023-03-03T01:26:26.821Z,102570.16
2023-03-03T01:28:30.800Z,102565.75
2023-03-03T01:30:35.660Z,102560.47
2023-03-03T01:32:41.258Z,102567.47
2023-03-03T01:34:46.333Z,102559.56
2023-03-03T01:36:50.773Z,102571.84
2023-03-03T01:38:56.091Z,102563.09
2023-03-03T01:41:03.032Z,102560.47
2023-03-03T01:43:08.033Z,102562.22
2023-03-03T01:45:17.609Z,102568.41
2023-03-03T01:47:24.290Z,102568.47
2023-03-03T01:49:31.587Z,102560.59
2023-03-03T01:51:40.284Z,102565.88
2023-03-03T01:53:48.146Z,102571.09
2023-03-03T01:55:55.330Z,102568.41
2023-03-03T01:58:07.503Z,102568.34
2023-03-03T02:00:14.657Z,102566.59
2023-03-03T02:02:20.291Z,102566.56
2023-03-03T02:04:26.882Z,102567.41
2023-03-03T02:06:35.568Z,102567.41
2023-03-03T02:08:47.233Z,102566.53
2023-03-03T02:10:53.092Z,102560.41
2023-03-03T02:12:58.319Z,102559.50
2023-03-03T02:15:04.447Z,102560.31
2023-03-03T02:17:08.440Z,102555.91
2023-03-03T02:19:21.918Z,102557.66
2023-03-03T02:21:27.972Z,102560.22
2023-03-03T02:23:36.535Z,102554.09
2023-03-03T02:25:49.798Z,102562.81
2023-03-03T02:27:56.770Z,102562.81
2023-03-03T02:30:10.585Z,102560.16
2023-03-03T02:32:14.425Z,102556.66
2023-03-03T02:34:19.314Z,102555.75
2023-03-03T02:36:24.691Z,102553.13
2023-03-03T02:38:32.212Z,102559.28
2023-03-03T02:40:42.058Z,102555.75
2023-03-03T02:42:48.452Z,102558.41
2023-03-03T02:44:54.113Z,102560.09
2023-03-03T02:46:59.143Z,102556.66
2023-03-03T02:49:04.758Z,102559.25
2023-03-03T02:51:08.390Z,102556.69
2023-03-03T02:53:12.257Z,102557.59
2023-03-03T02:55:16.584Z,102556.75
2023-03-03T02:57:21.366Z,102557.66
2023-03-03T02:59:25.694Z,102560.28
2023-03-03T03:01:32.314Z,102560.28
2023-03-03T03:03:36.304Z,102568.22
2023-03-03T03:05:43.088Z,102559.50
2023-03-03T03:07:47.323Z,102568.25
2023-03-03T03:09:51.411Z,102569.09
2023-03-03T03:11:55.032Z,102569.09
2023-03-03T03:14:02.195Z,102568.25
2023-03-03T03:16:07.313Z,102561.22
2023-03-03T03:18:12.687Z,102562.97
2023-03-03T03:20:18.410Z,102566.47
2023-03-03T03:22:22.428Z,102567.34
2023-03-03T03:24:26.755Z,102565.56
2023-03-03T03:26:35.236Z,102568.19
2023-03-03T03:28:39.993Z,102569.97
2023-03-03T03:30:45.990Z,102566.44
2023-03-03T03:32:50.202Z,102566.44
2023-03-03T03:34:55.767Z,102562.91
2023-03-03T03:36:59.729Z,102562.09
2023-03-03T03:39:06.631Z,102563.84
2023-03-03T03:41:14.066Z,102564.69
2023-03-03T03:43:18.189Z,102565.59
2023-03-03T03:45:21.853Z,102562.09
2023-03-03T03:47:25.662Z,102561.19
2023-03-03T03:49:29.564Z,102562.94
2023-03-03T03:51:38.444Z,102564.72
2023-03-03T03:53:42.685Z,102558.56
2023-03-03T03:55:46.904Z,102563.84
2023-03-03T03:57:51.390Z,102565.59
2023-03-03T03:59:55.293Z,102560.28
2023-03-03T04:01:59.099Z,102558.53
2023-03-03T04:04:04.490Z,102559.41
2023-03-03T04:06:08.559Z,102559.41
2023-03-03T04:08:14.248Z,102562.03
2023-03-03T04:10:19.670Z,102548.03
2023-03-03T04:12:24.253Z,102557.69
2023-03-03T04:14:28.104Z,102565.59
2023-03-03T04:16:31.764Z,102548.97
2023-03-03T04:18:35.837Z,102558.56
2023-03-03T04:20:41.878Z,102559.44
2023-03-03T04:22:46.734Z,102555.91
2023-03-03T04:24:53.212Z,102561.19
2023-03-03T04:26:57.105Z,102558.53
2023-03-03T04:29:01.954Z,102555.03
2023-03-03T04:31:07.526Z,102562.94
2023-03-03T04:33:12.268Z,102563.84
2023-03-03T04:35:17.759Z,102555.94
2023-03-03T04:37:21.770Z,102560.31
2023-03-03T04:39:25.753Z,102562.09
2023-03-03T04:41:31.588Z,102560.31
2023-03-03T04:43:35.955Z,102562.94
2023-03-03T04:45:40.920Z,102569.09
2023-03-03T04:47:45.815Z,102564.78
2023-03-03T04:49:50.698Z,102571.78
2023-03-03T04:51:54.559Z,102570.03
2023-03-03T04:53:58.279Z,102572.69
2023-03-03T04:56:02.275Z,102577.09
2023-03-03T04:58:07.749Z,102567.44
2023-03-03T05:00:13.783Z,102570.94
2023-03-03T05:02:17.654Z,102568.31
2023-03-03T05:04:21.513Z,102572.69
2023-03-03T05:06:25.227Z,102563.94
2023-03-03T05:08:28.932Z,102564.78
2023-03-03T05:10:35.020Z,102566.59
2023-03-03T05:12:38.742Z,102577.09
2023-03-03T05:14:44.059Z,102567.47
2023-03-03T05:16:47.225Z,102568.34
2023-03-03T05:18:50.934Z,102568.34
2023-03-03T05:20:55.223Z,102571.00
2023-03-03T05:23:01.706Z,102568.31
2023-03-03T05:25:05.971Z,102570.03
2023-03-03T05:27:09.270Z,102564.78
2023-03-03T05:29:12.603Z,102572.69
2023-03-03T05:31:17.276Z,102572.69
2023-03-03T05:33:20.621Z,102572.69
2023-03-03T05:35:23.875Z,102576.22
2023-03-03T05:37:27.241Z,102571.84
2023-03-03T05:39:30.586Z,102574.47
2023-03-03T05:41:36.931Z,102576.25
2023-03-03T05:43:40.760Z,102578.88
2023-03-03T05:45:44.284Z,102575.38
2023-03-03T05:47:49.518Z,102573.63
2023-03-03T05:49:52.489Z,102577.16
2023-03-03T05:51:55.748Z,102570.97
2023-03-03T05:53:59.036Z,102570.16
2023-03-03T05:56:02.286Z,102565.75
2023-03-03T05:58:05.677Z,102571.03
2023-03-03T06:00:10.223Z,102569.31
2023-03-03T06:02:16.713Z,102571.94
2023-03-03T06:04:21.462Z,102571.06
2023-03-03T06:06:24.684Z,102572.81
2023-03-03T06:08:27.975Z,102572.81
2023-03-03T06:10:31.303Z,102566.66
2023-03-03T06:12:39.224Z,102564.97
2023-03-03T06:14:42.508Z,102565.88
2023-03-03T06:16:45.821Z,102569.34
2023-03-03T06:18:49.160Z,102567.63
2023-03-03T06:20:54.980Z,102571.13
2023-03-03T06:22:58.391Z,102567.59
2023-03-03T06:25:01.777Z,102572.81
2023-03-03T06:27:05.190Z,102567.56
2023-03-03T06:29:08.522Z,102571.91
2023-03-03T06:31:12.021Z,102572.75
2023-03-03T06:33:15.364Z,102574.50
2023-03-03T06:35:18.822Z,102574.50
2023-03-03T06:37:23.736Z,102570.97
2023-03-03T06:39:27.170Z,102568.34
2023-03-03T06:41:30.977Z,102573.63
2023-03-03T06:43:34.422Z,102578.00
2023-03-03T06:45:37.966Z,102578.88
2023-03-03T06:47:41.415Z,102581.50
2023-03-03T06:49:44.697Z,102578.03
2023-03-03T06:51:48.001Z,102580.66
2023-03-03T06:53:55.591Z,102589.44
2023-03-03T06:56:00.001Z,102588.59
2023-03-03T06:58:03.368Z,102585.09
2023-03-03T07:00:17.343Z,102589.50
2023-03-03T07:02:22.572Z,102594.78
2023-03-03T07:04:30.989Z,102594.78
2023-03-03T07:06:34.854Z,102596.53
2023-03-03T07:08:41.250Z,102597.41
2023-03-03T07:10:46.952Z,102599.19
2023-03-03T07:12:50.752Z,102607.06
2023-03-03T07:14:59.499Z,102612.31
2023-03-03T07:17:07.395Z,102602.63
2023-03-03T07:19:20.747Z,102603.50
2023-03-03T07:21:27.218Z,102605.25
2023-03-03T07:23:42.717Z,102613.09
2023-03-03T07:25:48.704Z,102612.25
2023-03-03T07:27:53.849Z,102617.50
2023-03-03T07:30:19.586Z,102621.91
2023-03-03T07:32:37.230Z,102622.78
2023-03-03T07:34:45.502Z,102625.38
2023-03-03T07:36:52.212Z,102620.97
2023-03-03T07:38:58.895Z,102628.88
2023-03-03T07:41:06.947Z,102629.72
2023-03-03T07:43:36.554Z,102627.06
2023-03-03T07:45:40.386Z,102630.53
2023-03-03T07:47:44.422Z,102629.59
2023-03-03T07:49:49.071Z,102636.59
2023-03-03T07:51:57.568Z,102643.56
2023-03-03T07:54:19.087Z,102637.41
2023-03-03T07:56:37.466Z,102634.78
2023-03-03T07:58:42.345Z,102634.72
2023-03-03T08:01:27.899Z,102639.13
2023-03-03T08:03:32.768Z,102636.50
2023-03-03T08:05:38.045Z,102635.69
2023-03-03T08:07:42.012Z,102638.38
2023-03-03T08:09:49.661Z,102641.03
2023-03-03T08:11:59.841Z,102630.47
2023-03-03T08:14:03.521Z,102640.09
2023-03-03T08:16:32.237Z,102633.03
2023-03-03T08:18:38.152Z,102634.72
2023-03-03T08:20:49.769Z,102637.34
2023-03-03T08:22:53.842Z,102636.41
2023-03-03T08:24:57.931Z,102636.41
2023-03-03T08:27:03.574Z,102637.22
2023-03-03T08:29:07.780Z,102638.94
2023-03-03T08:31:20.192Z,102636.34
2023-03-03T08:33:30.132Z,102650.38
2023-03-03T08:35:34.614Z,102660.19
2023-03-03T08:37:39.320Z,102654.09
2023-03-03T08:39:43.409Z,102653.22
2023-03-03T08:41:47.650Z,102665.44
2023-03-03T08:43:52.757Z,102665.44
2023-03-03T08:45:59.926Z,102668.00
2023-03-03T08:48:06.055Z,102673.25
2023-03-03T08:50:11.433Z,102666.19
2023-03-03T08:52:15.492Z,102667.03
2023-03-03T08:54:19.899Z,102673.13
2023-03-03T08:56:24.221Z,102670.47
2023-03-03T08:58:34.989Z,102674.00
2023-03-03T09:00:42.457Z,102673.06
2023-03-03T09:02:46.991Z,102677.47
2023-03-03T09:04:50.968Z,102677.44
2023-03-03T09:06:55.163Z,102674.81
2023-03-03T09:08:59.190Z,102678.31
2023-03-03T09:11:03.822Z,102672.19
2023-03-03T09:13:15.372Z,102680.06
2023-03-03T09:15:21.794Z,102685.34
2023-03-03T09:17:31.911Z,102684.53
2023-03-03T09:19:38.779Z,102695.03
2023-03-03T09:21:43.796Z,102691.53
2023-03-03T09:23:55.431Z,102691.50
2023-03-03T09:26:00.603Z,102689.72
2023-03-03T09:28:04.546Z,102688.84
2023-03-03T09:30:28.918Z,102691.41
2023-03-03T09:32:38.055Z,102686.13
2023-03-03T09:34:44.228Z,102694.88
2023-03-03T09:36:49.766Z,102705.38
2023-03-03T09:38:54.854Z,102701.84
2023-03-03T09:41:31.186Z,102706.25
2023-03-03T09:43:43.836Z,102709.75
2023-03-03T09:45:59.946Z,102715.00
2023-03-03T09:48:41.884Z,102709.75
2023-03-03T09:50:56.186Z,102714.06
2023-03-03T09:53:15.536Z,102720.16
2023-03-03T09:55:39.331Z,102723.66
2023-03-03T09:58:08.070Z,102728.88
2023-03-03T10:00:37.245Z,102725.38
2023-03-03T10:02:56.741Z,102727.09
2023-03-03T10:05:37.151Z,102727.09
2023-03-03T10:07:51.684Z,102724.44
2023-03-03T10:10:14.759Z,102718.25
2023-03-03T10:12:24.419Z,102734.03
2023-03-03T10:14:47.270Z,102730.50
2023-03-03T10:17:15.412Z,102729.59
2023-03-03T10:19:34.589Z,102727.78
2023-03-03T10:21:46.472Z,102727.81
2023-03-03T10:24:01.975Z,102725.16
2023-03-03T10:26:16.909Z,102733.91
2023-03-03T10:28:34.037Z,102738.34
2023-03-03T10:31:04.109Z,102740.03
2023-03-03T10:33:20.326Z,102740.03
2023-03-03T10:35:40.914Z,102740.03
2023-03-03T10:37:53.308Z,102740.81
2023-03-03T10:40:19.360Z,102739.09
2023-03-03T10:42:42.922Z,102739.97
2023-03-03T10:45:09.698Z,102741.69
2023-03-03T10:47:46.171Z,102745.09
2023-03-03T10:50:00.053Z,102745.13
2023-03-03T10:52:20.306Z,102745.91
2023-03-03T10:54:48.368Z,102741.44
2023-03-03T10:57:03.117Z,102752.75
2023-03-03T10:59:28.418Z,102745.66
2023-03-03T11:01:47.268Z,102747.63
2023-03-03T11:04:13.330Z,102754.63
2023-03-03T11:06:21.952Z,102747.53
2023-03-03T11:08:30.328Z,102758.84
2023-03-03T11:10:48.192Z,102749.97
2023-03-03T11:13:04.146Z,102743.75
2023-03-03T11:15:24.260Z,102747.34
2023-03-03T11:17:38.784Z,102742.13
2023-03-03T11:19:57.683Z,102740.56
2023-03-03T11:22:15.496Z,102742.41
2023-03-03T11:24:33.128Z,102749.78
2023-03-03T11:26:51.155Z,102751.81
2023-03-03T11:29:12.992Z,102758.22
2023-03-03T11:31:27.584Z,102761.94
2023-03-03T11:33:40.074Z,102762.06
2023-03-03T11:35:51.051Z,102757.66
2023-03-03T11:38:06.720Z,102757.63
2023-03-03T11:40:18.346Z,102762.91
2023-03-03T11:42:30.116Z,102767.16
2023-03-03T11:44:39.966Z,102767.06
2023-03-03T11:46:48.925Z,102767.00
2023-03-03T11:48:59.654Z,102774.00
2023-03-03T11:51:07.546Z,102773.94
2023-03-03T11:53:26.874Z,102772.94
2023-03-03T11:55:34.862Z,102770.09
2023-03-03T11:57:44.736Z,102775.28
2023-03-03T12:00:25.069Z,102769.88
2023-03-03T12:02:44.612Z,102770.75
2023-03-03T12:04:51.758Z,102776.72
2023-03-03T12:07:19.158Z,102779.19
2023-03-03T12:09:41.529Z,102779.28
2023-03-03T12:11:55.840Z,102774.81
2023-03-03T12:14:04.472Z,102779.97
2023-03-03T12:16:17.326Z,102771.19
2023-03-03T12:18:51.612Z,102773.84
2023-03-03T12:21:11.461Z,102772.16
2023-03-03T12:23:35.598Z,102771.31
2023-03-03T12:25:43.095Z,102777.63
2023-03-03T12:27:54.174Z,102774.34
2023-03-03T12:30:07.850Z,102773.69
2023-03-03T12:32:22.085Z,102771.19
2023-03-03T12:34:33.199Z,102772.13
2023-03-03T12:37:00.985Z,102765.16
2023-03-03T12:39:11.948Z,102773.03
2023-03-03T12:41:23.990Z,102767.81
2023-03-03T12:43:43.851Z,102765.25
2023-03-03T12:45:57.429Z,102774.09
2023-03-03T12:48:10.060Z,102767.09
2023-03-03T12:50:26.880Z,102769.69
2023-03-03T12:52:40.891Z,102767.84
2023-03-03T12:54:58.109Z,102770.50
2023-03-03T12:57:13.984Z,102758.22
2023-03-03T12:59:26.560Z,102760.84
2023-03-03T13:01:44.744Z,102760.84
2023-03-03T13:04:02.300Z,102764.41
2023-03-03T13:06:08.835Z,102760.19
2023-03-03T13:08:43.144Z,102755.06
2023-03-03T13:10:51.598Z,102750.81
2023-03-03T13:13:01.866Z,102757.00
2023-03-03T13:15:18.011Z,102755.31
2023-03-03T13:17:28.564Z,102761.47
2023-03-03T13:19:39.784Z,102757.94
2023-03-03T13:21:50.415Z,102754.47
2023-03-03T13:24:01.938Z,102762.41
2023-03-03T13:26:13.122Z,102758.03
2023-03-03T13:28:26.916Z,102757.09
2023-03-03T13:30:35.027Z,102761.47
2023-03-03T13:32:47.013Z,102750.09
2023-03-03T13:34:57.544Z,102754.50
2023-03-03T13:37:06.788Z,102758.06
2023-03-03T13:39:20.672Z,102756.31
2023-03-03T13:41:30.615Z,102751.91
2023-03-03T13:43:41.675Z,102748.38
2023-03-03T13:45:57.864Z,102746.59
2023-03-03T13:48:08.226Z,102750.97
2023-03-03T13:50:25.315Z,102744.84
2023-03-03T13:52:30.587Z,102743.06
2023-03-03T13:54:56.183Z,102738.63
2023-03-03T13:57:14.968Z,102735.06
2023-03-03T13:59:31.217Z,102739.41
2023-03-03T14:01:49.325Z,102741.97
2023-03-03T14:04:06.450Z,102736.59
2023-03-03T14:06:16.564Z,102733.84
2023-03-03T14:08:42.442Z,102738.16
2023-03-03T14:11:03.852Z,102733.78
2023-03-03T14:13:10.892Z,102735.47
2023-03-03T14:15:23.598Z,102732.94
2023-03-03T14:17:35.164Z,102731.19
2023-03-03T14:19:44.682Z,102728.63
2023-03-03T14:22:03.438Z,102728.59
2023-03-03T14:24:11.504Z,102725.16
2023-03-03T14:26:15.792Z,102726.00
2023-03-03T14:28:21.789Z,102727.66
2023-03-03T14:30:35.362Z,102732.84
2023-03-03T14:32:45.425Z,102725.66
2023-03-03T14:34:59.661Z,102720.22
2023-03-03T14:37:23.442Z,102722.72
2023-03-03T14:39:34.295Z,102722.59
2023-03-03T14:41:41.546Z,102712.06
2023-03-03T14:43:47.033Z,102712.91
2023-03-03T14:45:50.958Z,102715.59
2023-03-03T14:47:55.046Z,102715.69
2023-03-03T14:50:00.584Z,102721.09
2023-03-03T14:52:21.169Z,102720.47
2023-03-03T14:54:28.431Z,102727.13
2023-03-03T14:56:35.862Z,102723.91
2023-03-03T14:58:42.660Z,102730.22
2023-03-03T15:00:46.321Z,102732.91
2023-03-03T15:03:04.985Z,102727.72
2023-03-03T15:05:24.124Z,102726.84
2023-03-03T15:07:36.249Z,102724.28
2023-03-03T15:09:43.519Z,102722.63
2023-03-03T15:11:47.756Z,102723.53
2023-03-03T15:13:51.363Z,102729.66
2023-03-03T15:16:04.386Z,102720.06
2023-03-03T15:18:13.944Z,102721.00
2023-03-03T15:20:33.071Z,102717.47
2023-03-03T15:22:48.122Z,102712.09
2023-03-03T15:24:59.631Z,102715.53
2023-03-03T15:27:08.111Z,102715.50
2023-03-03T15:29:22.794Z,102711.88
2023-03-03T15:31:38.198Z,102711.78
2023-03-03T15:33:48.841Z,102714.44
2023-03-03T15:35:56.241Z,102698.56
2023-03-03T15:38:12.452Z,102703.75
2023-03-03T15:40:27.540Z,102703.78
2023-03-03T15:42:39.590Z,102701.94
2023-03-03T15:44:57.769Z,102706.19
2023-03-03T15:47:15.984Z,102699.06
2023-03-03T15:49:46.316Z,102704.22
2023-03-03T15:52:12.671Z,102700.63
2023-03-03T15:54:31.162Z,102692.59
2023-03-03T15:56:43.737Z,102689.84
2023-03-03T15:59:05.754Z,102693.28
2023-03-03T16:01:19.580Z,102701.09
2023-03-03T16:03:29.997Z,102707.19
2023-03-03T16:05:36.976Z,102698.47
2023-03-03T16:07:50.489Z,102704.66
2023-03-03T16:10:05.092Z,102701.22
2023-03-03T16:12:19.249Z,102694.28
2023-03-03T16:14:42.365Z,102704.94
2023-03-03T16:16:50.953Z,102706.78
2023-03-03T16:19:07.405Z,102705.94
2023-03-03T16:21:25.092Z,102710.38
2023-03-03T16:23:39.229Z,102709.50
2023-03-03T16:25:57.306Z,102718.22
2023-03-03T16:28:07.263Z,102707.75
2023-03-03T16:30:28.080Z,102710.38
2023-03-03T16:32:39.285Z,102715.72
2023-03-03T16:34:48.952Z,102713.22
2023-03-03T16:37:01.622Z,102718.56
2023-03-03T16:39:10.396Z,102718.63
2023-03-03T16:41:24.879Z,102729.28
2023-03-03T16:43:38.318Z,102732.13
2023-03-03T16:45:43.926Z,102729.69
2023-03-03T16:48:01.133Z,102731.59
2023-03-03T16:50:18.477Z,102736.94
2023-03-03T16:52:31.396Z,102739.63
2023-03-03T16:54:40.998Z,102742.31
2023-03-03T16:56:54.948Z,102732.72
2023-03-03T16:59:13.870Z,102738.88
2023-03-03T17:01:27.050Z,102730.97
2023-03-03T17:03:42.082Z,102727.50
2023-03-03T17:05:52.392Z,102722.19
2023-03-03T17:08:09.419Z,102719.53
2023-03-03T17:10:24.860Z,102722.16
2023-03-03T17:12:51.905Z,102723.88
2023-03-03T17:15:13.098Z,102726.47
2023-03-03T17:17:25.819Z,102725.53
2023-03-03T17:19:57.557Z,102732.50
2023-03-03T17:22:15.588Z,102727.25
2023-03-03T17:24:31.870Z,102729.00
2023-03-03T17:26:58.636Z,102736.88
2023-03-03T17:29:24.948Z,102732.44
2023-03-03T17:31:38.071Z,102737.69
2023-03-03T17:34:00.745Z,102742.91
2023-03-03T17:36:24.305Z,102746.41
2023-03-03T17:38:42.456Z,102743.88
2023-03-03T17:40:54.895Z,102749.16
2023-03-03T17:43:05.026Z,102756.19
2023-03-03T17:45:13.287Z,102753.56
2023-03-03T17:47:29.497Z,102758.81
2023-03-03T17:50:08.004Z,102755.38
2023-03-03T17:52:54.401Z,102751.84
2023-03-03T17:55:22.257Z,102755.34
2023-03-03T17:57:41.197Z,102758.81
2023-03-03T18:00:03.101Z,102761.47
2023-03-03T18:02:56.234Z,102762.31
2023-03-03T18:05:29.231Z,102769.28
2023-03-03T18:07:46.359Z,102768.38
2023-03-03T18:10:25.447Z,102771.03
2023-03-03T18:12:43.256Z,102771.03
2023-03-03T18:15:01.499Z,102771.03
2023-03-03T18:17:35.166Z,102772.78
2023-03-03T18:19:59.460Z,102782.44
2023-03-03T18:22:09.142Z,102788.56
2023-03-03T18:24:38.472Z,102785.09
2023-03-03T18:26:43.378Z,102793.84
2023-03-03T18:28:50.409Z,102785.09
2023-03-03T18:30:58.526Z,102785.91
2023-03-03T18:33:15.816Z,102785.88
2023-03-03T18:35:29.877Z,102788.50
2023-03-03T18:37:46.741Z,102783.22
2023-03-03T18:39:51.716Z,102788.41
2023-03-03T18:42:13.096Z,102787.50
2023-03-03T18:44:29.750Z,102794.50
2023-03-03T18:46:54.299Z,102790.97
2023-03-03T18:49:03.456Z,102804.09
2023-03-03T18:51:09.751Z,102798.81
2023-03-03T18:53:26.105Z,102803.22
2023-03-03T18:55:30.207Z,102797.94
2023-03-03T18:57:34.226Z,102802.28
2023-03-03T18:59:42.805Z,102800.50
2023-03-03T19:01:51.966Z,102793.47
2023-03-03T19:04:19.099Z,102803.97
2023-03-03T19:06:33.111Z,102803.94
2023-03-03T19:08:51.445Z,102802.19
2023-03-03T19:11:01.073Z,102805.66
2023-03-03T19:13:10.132Z,102807.38
2023-03-03T19:15:44.969Z,102806.47
2023-03-03T19:17:53.627Z,102811.72
2023-03-03T19:20:07.299Z,102816.06
2023-03-03T19:22:26.396Z,102816.09
2023-03-03T19:24:35.228Z,102807.38
2023-03-03T19:26:57.440Z,102811.69
2023-03-03T19:29:13.427Z,102812.59
2023-03-03T19:31:28.706Z,102811.78
2023-03-03T19:33:56.992Z,102822.34
2023-03-03T19:36:32.496Z,102822.41
2023-03-03T19:38:45.283Z,102817.25
2023-03-03T19:41:00.427Z,102820.81
2023-03-03T19:43:15.896Z,102821.75
2023-03-03T19:45:38.116Z,102820.03
2023-03-03T19:47:48.631Z,102822.66
2023-03-03T19:50:05.586Z,102820.88
2023-03-03T19:52:20.215Z,102824.34
2023-03-03T19:54:47.040Z,102823.47
2023-03-03T19:56:54.040Z,102826.06
2023-03-03T19:59:11.047Z,102828.66
2023-03-03T20:01:24.764Z,102827.78
2023-03-03T20:03:53.226Z,102837.41
2023-03-03T20:06:10.574Z,102828.59
2023-03-03T20:08:19.388Z,102828.53
2023-03-03T20:10:39.334Z,102831.16
2023-03-03T20:13:00.571Z,102832.03
2023-03-03T20:15:12.800Z,102829.41
2023-03-03T20:18:00.537Z,102829.41
2023-03-03T20:20:22.981Z,102837.28
2023-03-03T20:22:39.521Z,102825.94
2023-03-03T20:25:08.656Z,102837.38
2023-03-03T20:27:19.116Z,102833.00
2023-03-03T20:29:42.641Z,102830.41
2023-03-03T20:31:58.384Z,102832.19
2023-03-03T20:34:11.450Z,102837.44
2023-03-03T20:36:27.143Z,102838.34
2023-03-03T20:38:42.049Z,102837.47
2023-03-03T20:40:57.310Z,102842.75
2023-03-03T20:43:13.781Z,102839.22
2023-03-03T20:45:34.332Z,102839.22
2023-03-03T20:47:49.749Z,102837.44
2023-03-03T20:50:15.806Z,102841.88
2023-03-03T20:52:26.037Z,102846.22
2023-03-03T20:54:43.414Z,102846.25
2023-03-03T20:56:54.848Z,102847.97
2023-03-03T20:59:11.446Z,102853.19
2023-03-03T21:01:17.942Z,102848.78
2023-03-03T21:03:29.791Z,102858.41
2023-03-03T21:05:34.630Z,102860.13
2023-03-03T21:07:41.211Z,102860.06
2023-03-03T21:09:44.785Z,102865.34
2023-03-03T21:11:49.874Z,102861.81
2023-03-03T21:13:56.772Z,102867.09
2023-03-03T21:16:04.536Z,102867.09
2023-03-03T21:18:24.117Z,102860.03
2023-03-03T21:20:31.408Z,102868.75
2023-03-03T21:22:35.155Z,102867.88
2023-03-03T21:24:52.969Z,102864.38
2023-03-03T21:27:00.530Z,102860.88
2023-03-03T21:29:04.523Z,102862.56
2023-03-03T21:31:13.621Z,102859.03
2023-03-03T21:33:45.221Z,102861.66
2023-03-03T21:35:59.654Z,102858.13
2023-03-03T21:38:03.537Z,102862.50
2023-03-03T21:40:23.533Z,102854.63
2023-03-03T21:42:44.502Z,102853.72
2023-03-03T21:44:50.084Z,102859.88
2023-03-03T21:46:54.112Z,102853.75
2023-03-03T21:48:57.758Z,102847.59
2023-03-03T21:51:02.873Z,102850.22
2023-03-03T21:53:06.597Z,102852.00
2023-03-03T21:55:11.436Z,102850.22
2023-03-03T21:57:15.631Z,102856.38
2023-03-03T21:59:21.312Z,102855.47
2023-03-03T22:01:25.292Z,102855.47
2023-03-03T22:03:29.208Z,102858.16
2023-03-03T22:05:33.200Z,102859.91
2023-03-03T22:07:37.360Z,102858.16
2023-03-03T22:09:43.906Z,102863.44
2023-03-03T22:11:48.286Z,102866.94
2023-03-03T22:13:51.950Z,102860.75
2023-03-03T22:15:57.300Z,102866.94
2023-03-03T22:18:01.593Z,102864.28
2023-03-03T22:20:06.101Z,102869.53
2023-03-03T22:22:10.015Z,102872.16
2023-03-03T22:24:13.899Z,102876.50
2023-03-03T22:26:17.535Z,102874.78
2023-03-03T22:28:21.386Z,102878.25
2023-03-03T22:30:25.570Z,102883.47
2023-03-03T22:32:31.468Z,102889.59
2023-03-03T22:34:35.025Z,102886.09
2023-03-03T22:36:38.947Z,102893.09
2023-03-03T22:38:42.937Z,102890.44
2023-03-03T22:40:46.301Z,102890.44
2023-03-03T22:42:52.585Z,102890.47
2023-03-03T22:44:56.892Z,102886.13
2023-03-03T22:47:00.689Z,102883.63
2023-03-03T22:49:05.824Z,102882.88
2023-03-03T22:51:09.882Z,102890.84
2023-03-03T22:53:13.777Z,102889.16
2023-03-03T22:55:17.277Z,102887.44
2023-03-03T22:57:20.706Z,102890.13
2023-03-03T22:59:24.033Z,102893.63
2023-03-03T23:01:27.508Z,102891.88
2023-03-03T23:03:32.492Z,102883.19
2023-03-03T23:05:38.164Z,102891.06
2023-03-03T23:07:42.032Z,102892.84
2023-03-03T23:09:45.432Z,102895.50
2023-03-03T23:11:48.904Z,102895.47
2023-03-03T23:13:52.369Z,102895.41
2023-03-03T23:16:00.366Z,102885.75
2023-03-03T23:18:04.648Z,102891.88
2023-03-03T23:20:09.404Z,102888.34
2023-03-03T23:22:14.269Z,102897.94
2023-03-03T23:24:17.634Z,102899.69
2023-03-03T23:26:21.016Z,102894.38
2023-03-03T23:28:24.325Z,102896.94
2023-03-03T23:30:27.693Z,102888.16
2023-03-03T23:32:31.112Z,102892.50
2023-03-03T23:34:34.616Z,102896.84
2023-03-03T23:36:38.032Z,102895.03
2023-03-03T23:38:43.260Z,102893.28
2023-03-03T23:40:47.829Z,102897.66
2023-03-03T23:42:51.622Z,102891.56
2023-03-03T23:44:55.549Z,102895.09
2023-03-03T23:46:59.219Z,102888.06
2023-03-03T23:49:02.510Z,102898.59
2023-03-03T23:51:06.349Z,102896.81
2023-03-03T23:53:09.908Z,102895.91
2023-03-03T23:55:14.566Z,102888.03
2023-03-03T23:57:17.815Z,102893.25
2023-03-03T23:59:21.217Z,102888.88
